Time;durP1;ratioP1;P1;durP2;ratioP2;P2;SDS_P1;SDS_P2;PMS_P1;PMS_P2;Temp;Humidity;BMP_temperature;BMP_pressure;BME280_temperature;BME280_humidity;BME280_pressure;Samples;Min_cycle;Max_cycle;Signal;HPM_P1;HPM_P2
2022/09/28 00:01:54;;;;;;;1.63;0.80;;;;;;;20.05;51.47;99514.94;5000478;28;20041;-43
2022/09/28 00:04:20;;;;;;;1.10;1.00;;;;;;;20.06;51.79;99516.59;4999334;28;20041;-43
2022/09/28 00:06:46;;;;;;;1.98;0.95;;;;;;;20.06;51.17;99518.44;5000264;28;20128;-43
2022/09/28 00:09:13;;;;;;;2.25;0.90;;;;;;;20.04;51.37;99517.75;5001226;28;20096;-44
2022/09/28 00:11:38;;;;;;;1.73;0.90;;;;;;;20.03;51.33;99511.56;4968949;28;20189;-43
2022/09/28 00:14:06;;;;;;;1.77;0.82;;;;;;;20.03;51.74;99511.56;5002952;28;20294;-33
2022/09/28 00:16:34;;;;;;;2.03;0.90;;;;;;;20.05;51.31;99511.38;5003723;28;20037;-43
2022/09/28 00:19:00;;;;;;;1.70;0.90;;;;;;;19.98;51.23;99500.44;5002364;28;20037;-43
2022/09/28 00:21:28;;;;;;;1.95;0.98;;;;;;;19.98;51.72;99501.28;5002524;28;20454;-44
2022/09/28 00:24:14;;;;;;;2.40;1.00;;;;;;;19.96;51.79;99497.94;5004348;28;20480;-35
2022/09/28 00:26:39;;;;;;;2.10;0.90;;;;;;;19.98;51.32;99506.66;5004562;28;20036;-32
2022/09/28 00:29:06;;;;;;;0.80;0.80;;;;;;;19.96;51.32;99514.06;5003219;28;20384;-31
2022/09/28 00:31:32;;;;;;;2.08;1.02;;;;;;;19.95;51.65;99504.31;5003999;28;20098;-31
2022/09/28 00:33:59;;;;;;;2.78;0.90;;;;;;;19.93;51.79;99511.69;5003466;28;20029;-33
2022/09/28 00:36:27;;;;;;;1.63;0.90;;;;;;;19.91;51.48;99513.69;5004384;28;20033;-43
2022/09/28 00:38:55;;;;;;;1.92;0.98;;;;;;;19.91;51.69;99511.00;5002268;28;20529;-43
2022/09/28 00:41:21;;;;;;;0.95;0.82;;;;;;;19.93;51.74;99526.97;5003877;28;20465;-32
2022/09/28 00:43:46;;;;;;;0.80;0.80;;;;;;;19.90;51.35;99521.94;5003675;28;20029;-33
2022/09/28 00:46:23;;;;;;;1.50;1.00;;;;;;;19.88;51.98;99538.19;5003394;28;20053;-43
2022/09/28 00:48:56;;;;;;;1.52;0.90;;;;;;;19.90;51.80;99544.25;5002256;28;20037;-43
2022/09/28 00:51:23;;;;;;;1.67;1.00;;;;;;;19.90;51.97;99543.41;5003158;28;20037;-35
2022/09/28 00:53:49;;;;;;;1.42;0.80;;;;;;;19.86;52.05;99533.97;5033458;28;20037;-34
2022/09/28 00:56:20;;;;;;;1.17;0.88;;;;;;;19.85;51.47;99519.72;5004102;28;20130;-35
2022/09/28 00:58:49;;;;;;;1.38;0.63;;;;;;;19.86;51.88;99523.22;5003522;28;20032;-33
2022/09/28 01:01:15;;;;;;;1.77;0.70;;;;;;;19.88;51.82;99526.59;5002995;28;21502;-33
2022/09/28 01:03:44;;;;;;;2.88;1.00;;;;;;;19.85;51.96;99526.91;5004387;28;20571;-43
2022/09/28 01:06:12;;;;;;;1.75;1.10;;;;;;;19.84;51.48;99528.78;5001938;28;20086;-36
2022/09/28 01:08:38;;;;;;;0.80;0.80;;;;;;;19.81;51.92;99524.53;5002401;28;20057;-33
2022/09/28 01:11:04;;;;;;;1.02;0.88;;;;;;;19.85;51.62;99521.53;5002033;28;20037;-33
2022/09/28 01:13:31;;;;;;;1.73;1.10;;;;;;;19.85;51.91;99529.59;5003271;28;20628;-43
2022/09/28 01:15:59;;;;;;;2.22;0.80;;;;;;;19.84;51.82;99522.56;5003893;28;20406;-35
2022/09/28 01:18:34;;;;;;;1.65;0.80;;;;;;;19.79;51.62;99510.41;5001478;28;20130;-44
2022/09/28 01:21:17;;;;;;;1.95;1.05;;;;;;;19.78;51.62;99519.50;5001895;28;20051;-33
2022/09/28 01:24:09;;;;;;;0.80;0.80;;;;;;;19.78;51.99;99505.22;5002406;28;20037;-33
2022/09/28 01:26:47;;;;;;;1.33;0.88;;;;;;;19.74;51.66;99507.38;5003289;28;20371;-34
2022/09/28 01:29:33;;;;;;;1.08;0.80;;;;;;;19.76;51.96;99501.84;5001740;28;20116;-35
2022/09/28 01:32:22;;;;;;;0.90;0.80;;;;;;;19.77;51.99;99499.00;5002682;28;20751;-35
2022/09/28 01:35:04;;;;;;;1.80;0.75;;;;;;;19.76;52.15;99504.53;4982265;28;20052;-35
2022/09/28 01:37:46;;;;;;;2.60;0.90;;;;;;;19.78;51.96;99497.16;5001554;28;20120;-36
2022/09/28 01:40:14;;;;;;;2.38;0.90;;;;;;;19.76;51.88;99501.84;4999096;28;20103;-43
2022/09/28 01:42:43;;;;;;;1.55;0.77;;;;;;;19.73;51.91;99492.28;5002351;28;20377;-44
2022/09/28 01:45:19;;;;;;;0.85;0.75;;;;;;;19.70;52.04;99497.94;5001821;28;20082;-33
2022/09/28 01:47:46;;;;;;;1.58;0.90;;;;;;;19.75;51.82;99505.53;5001565;28;20472;-34
2022/09/28 01:50:19;;;;;;;1.33;0.80;;;;;;;19.72;51.86;99503.16;4998557;28;20040;-36
2022/09/28 01:53:08;;;;;;;2.58;0.70;;;;;;;19.72;51.79;99503.16;5001496;28;20535;-44
2022/09/28 01:55:37;;;;;;;1.10;0.73;;;;;;;19.72;52.27;99503.16;5002305;28;20103;-44
2022/09/28 01:58:27;;;;;;;1.52;0.80;;;;;;;19.69;52.21;99512.38;5001545;28;20057;-44
2022/09/28 02:00:59;;;;;;;2.35;0.90;;;;;;;19.70;52.09;99508.69;5001403;28;20672;-44
2022/09/28 02:03:32;;;;;;;1.05;0.60;;;;;;;19.70;51.85;99505.19;5002583;28;20045;-43
2022/09/28 02:06:06;;;;;;;0.90;0.70;;;;;;;19.69;52.24;99508.88;5002105;28;20152;-44
2022/09/28 02:08:41;;;;;;;0.70;0.60;;;;;;;19.64;52.16;99504.81;5002051;28;20040;-44
2022/09/28 02:11:14;;;;;;;1.70;0.70;;;;;;;19.64;52.30;99502.13;5000083;28;20242;-44
2022/09/28 02:14:11;;;;;;;1.23;0.70;;;;;;;19.66;51.80;99491.22;5001736;28;20186;-45
2022/09/28 02:16:40;;;;;;;1.77;0.85;;;;;;;19.68;52.29;99494.59;5000686;28;20049;-43
2022/09/28 02:19:10;;;;;;;1.65;0.75;;;;;;;19.63;51.92;99496.94;4999990;28;20147;-43
2022/09/28 02:21:41;;;;;;;1.40;0.65;;;;;;;19.65;52.27;99505.66;5001591;28;20037;-43
2022/09/28 02:24:17;;;;;;;1.30;0.80;;;;;;;19.64;52.19;99496.78;5000508;28;20029;-44
2022/09/28 02:26:47;;;;;;;1.05;0.70;;;;;;;19.63;51.93;99502.31;5001447;28;20041;-44
2022/09/28 02:29:13;;;;;;;1.30;0.73;;;;;;;19.62;51.88;99506.00;4999838;28;20429;-44
2022/09/28 02:31:38;;;;;;;0.80;0.70;;;;;;;19.61;51.91;99507.81;5000320;28;20320;-44
2022/09/28 02:34:03;;;;;;;0.93;0.75;;;;;;;19.61;51.92;99505.13;5000563;28;20397;-43
2022/09/28 02:36:30;;;;;;;1.83;0.85;;;;;;;19.62;51.82;99511.34;5001457;28;20568;-43
2022/09/28 02:38:57;;;;;;;0.85;0.60;;;;;;;19.63;52.19;99513.03;4999973;28;21382;-43
2022/09/28 02:41:53;;;;;;;1.40;0.52;;;;;;;19.59;52.47;99512.53;5001640;28;20473;-42
2022/09/28 02:44:50;;;;;;;1.75;0.60;;;;;;;19.61;51.98;99517.72;5000141;28;20044;-43
2022/09/28 02:47:33;;;;;;;0.90;0.70;;;;;;;19.60;51.86;99510.66;4981295;28;20049;-43
2022/09/28 02:50:38;;;;;;;1.33;0.68;;;;;;;19.55;52.27;99508.44;4999421;28;20041;-43
2022/09/28 02:53:19;;;;;;;0.73;0.60;;;;;;;19.58;52.29;99508.16;4974113;28;20194;-44
2022/09/28 02:56:32;;;;;;;0.90;0.73;;;;;;;19.58;52.33;99510.81;5000436;28;20079;-43
2022/09/28 02:59:16;;;;;;;1.55;0.70;;;;;;;19.54;52.27;99519.34;4938518;28;20775;-43
2022/09/28 03:02:13;;;;;;;0.88;0.70;;;;;;;19.53;52.68;99514.97;4994860;28;20608;-43
2022/09/28 03:04:47;;;;;;;2.30;0.80;;;;;;;19.52;52.29;99516.00;4946596;28;20081;-31
2022/09/28 03:07:28;;;;;;;1.38;0.80;;;;;;;19.52;52.13;99522.19;5001136;28;20050;-43
2022/09/28 03:10:02;;;;;;;0.60;0.50;;;;;;;19.53;52.31;99521.22;4998819;28;20240;-35
2022/09/28 03:12:28;;;;;;;1.27;0.80;;;;;;;19.54;52.60;99517.53;5000335;28;20044;-44
2022/09/28 03:15:18;;;;;;;1.50;0.70;;;;;;;19.52;52.56;99524.06;5000052;28;20037;-43
2022/09/28 03:17:43;;;;;;;0.90;0.70;;;;;;;19.52;52.54;99513.31;5000626;28;20140;-34
2022/09/28 03:20:09;;;;;;;0.93;0.52;;;;;;;19.50;52.37;99505.41;5000398;28;20036;-34
2022/09/28 03:22:34;;;;;;;1.27;0.60;;;;;;;19.50;52.42;99510.78;4999578;28;20036;-45
2022/09/28 03:25:00;;;;;;;0.40;0.40;;;;;;;19.48;52.46;99499.38;4999692;28;20045;-33
2022/09/28 03:27:25;;;;;;;0.70;0.60;;;;;;;19.49;52.77;99501.88;5001591;28;20102;-36
2022/09/28 03:29:51;;;;;;;1.20;0.50;;;;;;;19.52;52.71;99495.34;4999519;28;20501;-34
2022/09/28 03:32:16;;;;;;;1.00;0.75;;;;;;;19.49;52.73;99507.25;4999175;28;20448;-35
2022/09/28 03:34:41;;;;;;;1.75;0.65;;;;;;;19.47;52.54;99508.41;4999054;28;20043;-34
2022/09/28 03:37:07;;;;;;;0.52;0.52;;;;;;;19.51;52.89;99508.94;4999927;28;20045;-32
2022/09/28 03:39:32;;;;;;;1.45;0.80;;;;;;;19.47;52.88;99514.63;4999976;28;20044;-32
2022/09/28 03:41:59;;;;;;;1.15;0.60;;;;;;;19.51;52.57;99551.91;4999941;28;20629;-32
2022/09/28 03:44:24;;;;;;;0.68;0.68;;;;;;;19.50;52.58;99569.84;5003391;28;20593;-32
2022/09/28 03:46:50;;;;;;;1.38;0.80;;;;;;;19.48;52.77;99555.75;5004914;28;20021;-32
2022/09/28 03:49:15;;;;;;;2.92;0.82;;;;;;;19.44;52.87;99536.41;5004124;28;20571;-34
2022/09/28 03:51:40;;;;;;;1.52;1.25;;;;;;;19.47;52.43;99528.03;5003047;28;20509;-33
2022/09/28 03:54:06;;;;;;;2.45;1.00;;;;;;;19.45;52.31;99515.78;5019428;28;20041;-34
2022/09/28 03:56:31;;;;;;;1.67;0.90;;;;;;;19.44;52.41;99517.63;5002770;28;20107;-33
2022/09/28 03:58:57;;;;;;;1.90;0.73;;;;;;;19.42;52.94;99516.09;5018014;28;20047;-34
2022/09/28 04:01:22;;;;;;;2.80;0.73;;;;;;;19.43;52.99;99513.25;5004274;28;20025;-33
2022/09/28 04:03:54;;;;;;;2.38;0.85;;;;;;;19.41;53.06;99509.91;5003867;28;20064;-34
2022/09/28 04:06:19;;;;;;;;;;;;;;;19.43;52.62;99509.75;5004376;28;20044;-34
2022/09/28 04:08:44;;;;;;;2.30;0.68;;;;;;;19.45;53.25;99516.63;5002449;28;19934;-34
2022/09/28 04:11:10;;;;;;;1.05;0.60;;;;;;;19.41;52.62;99509.03;5004023;28;20116;-32
2022/09/28 04:13:36;;;;;;;2.35;0.98;;;;;;;19.39;52.79;99516.44;5003679;28;20040;-33
2022/09/28 04:16:02;;;;;;;1.05;0.63;;;;;;;19.41;52.63;99515.28;5003414;28;20026;-33
2022/09/28 04:18:28;;;;;;;2.28;0.70;;;;;;;19.36;52.44;99517.59;5003350;28;20049;-33
2022/09/28 04:20:58;;;;;;;1.38;0.70;;;;;;;19.37;52.70;99519.25;5003921;28;20037;-34
2022/09/28 04:23:24;;;;;;;0.57;0.57;;;;;;;19.38;52.51;99514.75;5003425;28;20147;-33
2022/09/28 04:25:52;;;;;;;2.78;0.70;;;;;;;19.38;52.12;99531.69;5003643;28;20049;-33
2022/09/28 04:31:02;;;;;;;4.03;0.77;;;;;;;19.39;52.99;99530.69;5002510;28;20128;-32
2022/09/28 04:33:27;;;;;;;7.03;1.02;;;;;;;19.46;53.17;99520.16;5005357;28;20033;-32
2022/09/28 04:35:53;;;;;;;2.80;0.90;;;;;;;19.51;53.15;99517.00;5002458;28;20121;-33
2022/09/28 04:38:18;;;;;;;1.15;0.70;;;;;;;19.57;53.11;99519.06;5004909;28;20034;-33
2022/09/28 04:40:44;;;;;;;1.40;0.52;;;;;;;19.62;53.02;99525.63;5002867;28;20037;-32
2022/09/28 04:43:09;;;;;;;3.22;0.80;;;;;;;19.66;52.99;99528.81;5004235;28;20049;-33
2022/09/28 04:45:34;;;;;;;1.23;0.80;;;;;;;19.69;53.02;99539.25;5002390;28;21416;-32
2022/09/28 04:48:00;;;;;;;2.15;0.80;;;;;;;19.70;53.43;99543.59;5003708;28;21046;-33
2022/09/28 04:50:25;;;;;;;1.58;0.73;;;;;;;19.70;53.46;99535.56;5001526;28;20067;-33
2022/09/28 04:52:51;;;;;;;1.40;0.60;;;;;;;19.71;52.82;99533.72;5002659;28;20770;-33
2022/09/28 04:55:16;;;;;;;1.75;0.70;;;;;;;19.69;52.93;99520.44;5003737;28;20124;-34
2022/09/28 04:57:41;;;;;;;0.60;0.60;;;;;;;19.71;53.48;99525.66;5002258;28;20040;-32
2022/09/28 05:00:08;;;;;;;2.42;0.80;;;;;;;19.71;53.23;99514.94;5003062;28;20517;-32
2022/09/28 05:02:33;;;;;;;1.02;0.60;;;;;;;19.74;53.37;99523.47;5002840;28;20361;-32
2022/09/28 05:04:59;;;;;;;0.93;0.65;;;;;;;19.75;53.16;99519.81;5002006;28;20034;-33
2022/09/28 05:07:25;;;;;;;1.50;0.77;;;;;;;19.80;52.93;99524.69;5004547;28;20180;-32
2022/09/28 05:09:51;;;;;;;1.38;0.70;;;;;;;19.79;53.06;99531.06;5000426;28;20203;-34
2022/09/28 05:12:16;;;;;;;2.80;0.70;;;;;;;19.81;53.21;99531.75;5001008;28;20049;-32
2022/09/28 05:14:42;;;;;;;3.35;0.77;;;;;;;19.75;52.94;99535.91;5002104;28;20051;-32
2022/09/28 05:17:09;;;;;;;2.20;0.77;;;;;;;19.92;52.34;99542.25;5003117;28;20064;-33
2022/09/28 05:19:34;;;;;;;2.67;0.80;;;;;;;20.06;52.36;99548.84;5002547;28;20039;-33
2022/09/28 05:22:04;;;;;;;1.35;0.57;;;;;;;20.17;51.86;99563.84;5001938;28;20725;-33
2022/09/28 05:24:30;;;;;;;0.77;0.55;;;;;;;20.24;51.12;99547.91;5002346;28;20597;-35
2022/09/28 05:26:56;;;;;;;1.30;0.60;;;;;;;20.32;50.93;99556.00;5003698;28;20040;-33
2022/09/28 05:29:21;;;;;;;1.83;0.70;;;;;;;20.36;51.18;99543.91;5000146;28;20618;-33
2022/09/28 05:31:47;;;;;;;1.25;0.60;;;;;;;20.44;50.39;99535.84;5003476;28;20033;-33
2022/09/28 05:34:12;;;;;;;0.68;0.60;;;;;;;20.46;50.89;99527.59;5003282;28;20060;-34
2022/09/28 05:36:39;;;;;;;1.85;0.70;;;;;;;20.50;50.80;99526.28;5002986;28;20036;-33
2022/09/28 05:39:05;;;;;;;1.35;0.70;;;;;;;20.58;50.56;99536.22;5004431;28;20375;-33
2022/09/28 05:41:31;;;;;;;0.82;0.68;;;;;;;20.64;50.51;99535.56;5004320;28;21463;-33
2022/09/28 05:43:57;;;;;;;1.35;0.57;;;;;;;20.73;50.41;99545.34;5002265;28;20041;-33
2022/09/28 05:46:22;;;;;;;3.05;0.80;;;;;;;20.79;50.13;99533.06;5035805;28;20647;-34
2022/09/28 05:48:48;;;;;;;1.40;0.60;;;;;;;20.86;49.50;99527.88;5001123;28;20067;-33
2022/09/28 05:51:13;;;;;;;0.60;0.60;;;;;;;20.91;49.89;99520.97;5002816;28;20052;-34
2022/09/28 05:53:39;;;;;;;0.95;0.60;;;;;;;20.98;49.85;99521.13;5000765;28;20037;-33
2022/09/28 05:56:04;;;;;;;0.70;0.50;;;;;;;21.06;49.19;99521.16;5001585;28;20033;-33
2022/09/28 05:58:30;;;;;;;0.93;0.60;;;;;;;21.13;49.66;99524.00;5001377;28;20071;-33
2022/09/28 06:00:56;;;;;;;0.57;0.50;;;;;;;21.20;49.54;99516.06;5003548;28;20497;-33
2022/09/28 06:03:23;;;;;;;0.65;0.55;;;;;;;21.24;49.17;99520.94;5002700;28;20025;-32
2022/09/28 06:05:48;;;;;;;1.00;0.50;;;;;;;21.30;48.84;99519.41;5002800;28;20033;-32
2022/09/28 06:08:14;;;;;;;0.90;0.60;;;;;;;21.37;48.69;99524.94;5001579;28;20682;-33
2022/09/28 06:10:39;;;;;;;0.70;0.70;;;;;;;21.40;48.97;99530.84;5002179;28;20080;-32
2022/09/28 06:13:06;;;;;;;0.98;0.60;;;;;;;21.44;48.84;99529.50;5000661;28;20068;-33
2022/09/28 06:15:33;;;;;;;1.85;0.70;;;;;;;21.49;48.63;99545.13;5001255;28;20651;-33
2022/09/28 06:18:03;;;;;;;0.63;0.50;;;;;;;21.54;48.49;99547.31;5001472;28;20573;-35
2022/09/28 06:20:32;;;;;;;0.95;0.77;;;;;;;21.58;49.02;99546.81;5001962;28;20190;-34
2022/09/28 06:22:58;;;;;;;1.35;0.70;;;;;;;21.62;48.70;99552.72;4998359;28;20554;-33
2022/09/28 06:25:26;;;;;;;0.52;0.47;;;;;;;21.64;48.64;99539.06;4995913;28;20112;-33
2022/09/28 06:28:00;;;;;;;1.05;0.70;;;;;;;21.67;48.37;99541.44;4999749;28;20039;-33
2022/09/28 06:30:27;;;;;;;1.85;0.70;;;;;;;21.69;48.26;99542.94;5001387;28;20433;-33
2022/09/28 06:32:54;;;;;;;0.75;0.57;;;;;;;21.69;48.69;99542.06;4999281;28;20071;-33
2022/09/28 06:35:21;;;;;;;0.60;0.60;;;;;;;21.66;48.80;99555.91;4998843;28;20036;-33
2022/09/28 06:37:46;;;;;;;0.68;0.63;;;;;;;21.65;48.64;99551.53;4999099;28;20037;-33
2022/09/28 06:40:12;;;;;;;0.82;0.70;;;;;;;21.62;48.76;99559.97;4994897;28;20025;-33
2022/09/28 06:42:37;;;;;;;0.70;0.70;;;;;;;21.59;49.01;99571.91;4998551;28;20116;-33
2022/09/28 06:45:03;;;;;;;1.73;0.90;;;;;;;21.58;48.96;99589.09;4997223;28;20041;-33
2022/09/28 06:47:30;;;;;;;2.17;0.77;;;;;;;21.54;49.17;99585.84;4999759;28;20041;-34
2022/09/28 06:49:56;;;;;;;1.45;0.70;;;;;;;21.50;49.20;99586.38;4998744;28;20030;-33
2022/09/28 06:52:21;;;;;;;1.20;0.80;;;;;;;21.49;49.12;99584.69;5000823;28;20084;-34
2022/09/28 06:54:47;;;;;;;1.42;0.80;;;;;;;21.46;48.86;99585.88;4999459;28;20481;-34
2022/09/28 06:57:12;;;;;;;1.00;0.80;;;;;;;21.43;49.49;99579.00;5001535;28;20048;-33
2022/09/28 06:59:37;;;;;;;1.60;0.90;;;;;;;21.41;49.10;99574.78;5000020;28;20043;-35
2022/09/28 07:02:03;;;;;;;0.80;0.70;;;;;;;21.38;49.56;99577.78;5000827;28;20038;-35
2022/09/28 07:04:30;;;;;;;2.33;0.70;;;;;;;21.33;49.75;99577.47;5001601;28;20233;-32
2022/09/28 07:06:55;;;;;;;1.27;0.63;;;;;;;21.30;49.09;99581.34;4998892;28;20127;-32
2022/09/28 07:09:21;;;;;;;3.13;1.02;;;;;;;21.27;49.65;99573.63;4997606;28;20065;-32
2022/09/28 07:11:46;;;;;;;1.20;1.00;;;;;;;21.24;49.71;99580.19;4999982;28;20045;-41
2022/09/28 07:14:12;;;;;;;1.42;0.85;;;;;;;21.23;49.62;99585.75;4999219;28;20184;-40
2022/09/28 07:16:37;;;;;;;1.77;1.02;;;;;;;21.20;49.62;99583.38;4997424;28;20143;-31
2022/09/28 07:19:03;;;;;;;1.77;1.02;;;;;;;21.17;49.47;99583.72;4998828;28;20182;-32
2022/09/28 07:21:28;;;;;;;0.90;0.80;;;;;;;21.14;49.31;99576.81;5000058;28;20353;-31
2022/09/28 07:23:54;;;;;;;1.73;1.05;;;;;;;21.13;49.77;99582.38;5001130;28;20513;-32
2022/09/28 07:26:20;;;;;;;1.42;0.90;;;;;;;21.11;49.39;99588.78;4996337;28;20029;-35
2022/09/28 07:28:45;;;;;;;2.35;0.80;;;;;;;21.09;49.40;99582.69;5001133;28;20040;-33
2022/09/28 07:31:10;;;;;;;1.00;0.90;;;;;;;21.07;49.73;99590.09;5000486;28;20386;-33
2022/09/28 07:33:36;;;;;;;1.70;0.90;;;;;;;21.06;49.57;99592.94;5000154;28;20044;-42
2022/09/28 07:36:05;;;;;;;1.10;0.90;;;;;;;21.04;49.50;99586.91;5000401;28;20389;-40
2022/09/28 07:38:31;;;;;;;2.38;0.80;;;;;;;21.02;49.68;99584.38;4999981;28;20095;-41
2022/09/28 07:41:13;;;;;;;102.72;5.43;;;;;;;21.04;49.46;99595.00;4999678;28;20037;-34
2022/09/28 07:43:39;;;;;;;6.60;1.42;;;;;;;21.08;50.14;99599.84;5001027;28;20492;-42
2022/09/28 07:46:10;;;;;;;2.97;1.00;;;;;;;21.10;50.02;99588.91;5000987;28;21862;-41
2022/09/28 07:48:40;;;;;;;3.00;0.90;;;;;;;21.09;49.72;99590.78;5002173;28;20052;-41
2022/09/28 07:51:06;;;;;;;3.25;0.95;;;;;;;21.08;50.08;99593.63;5006317;28;20038;-41
2022/09/28 07:53:32;;;;;;;2.90;1.20;;;;;;;21.06;50.30;99599.19;5000386;28;20033;-41
2022/09/28 07:56:07;;;;;;;2.53;1.30;;;;;;;21.07;50.21;99603.53;5000733;28;20446;-39
2022/09/28 07:58:35;;;;;;;2.70;1.40;;;;;;;21.08;50.14;99599.84;4997963;28;20033;-39
2022/09/28 08:01:07;;;;;;;5.57;1.88;;;;;;;21.10;50.62;99599.69;4998992;28;20367;-33
2022/09/28 08:03:34;;;;;;;3.45;1.45;;;;;;;21.13;50.04;99603.91;4998613;28;21064;-34
2022/09/28 08:06:01;;;;;;;11.88;1.83;;;;;;;21.16;50.01;99609.78;4999012;28;20115;-32
2022/09/28 08:08:27;;;;;;;3.50;1.30;;;;;;;21.22;50.30;99613.66;4998961;28;20682;-33
2022/09/28 08:10:53;;;;;;;14.10;1.63;;;;;;;21.22;49.98;99610.97;4999460;28;20050;-41
2022/09/28 08:13:19;;;;;;;3.67;1.30;;;;;;;21.21;50.37;99620.88;4999131;28;20127;-42
2022/09/28 08:15:44;;;;;;;3.53;1.10;;;;;;;21.20;49.98;99627.31;4999590;28;20049;-34
2022/09/28 08:18:10;;;;;;;4.97;1.10;;;;;;;21.18;50.52;99628.47;4997685;28;20037;-33
2022/09/28 08:23:19;;;;;;;4.28;1.08;;;;;;;21.16;50.93;99627.78;4998389;28;20528;-33
2022/09/28 08:25:54;;;;;;;3.58;1.38;;;;;;;21.14;50.99;99629.78;4999267;28;20029;-33
2022/09/28 08:28:21;;;;;;;4.13;1.30;;;;;;;21.13;50.46;99620.88;5030926;28;20078;-33
2022/09/28 08:30:47;;;;;;;3.05;1.27;;;;;;;21.13;50.71;99623.59;5001381;28;20087;-33
2022/09/28 08:33:14;;;;;;;3.03;1.40;;;;;;;21.13;50.46;99620.06;5003857;28;20037;-33
2022/09/28 08:35:40;;;;;;;12.80;3.90;;;;;;;21.13;50.85;99622.75;5001484;28;20037;-33
2022/09/28 08:38:05;;;;;;;29.45;5.72;;;;;;;21.12;51.26;99632.66;5003095;28;21200;-40
2022/09/28 08:40:36;;;;;;;32.00;8.23;;;;;;;21.13;51.35;99630.84;5001077;28;20025;-39
2022/09/28 08:43:14;;;;;;;27.45;7.03;;;;;;;21.17;51.14;99634.88;5001183;28;20025;-34
2022/09/28 08:45:39;;;;;;;25.40;6.18;;;;;;;21.21;51.15;99636.22;4999714;28;20049;-41
2022/09/28 08:51:26;;;;;;;21.73;6.57;;;;;;;21.25;51.11;99642.94;4919220;28;20557;-41
2022/09/28 08:54:23;;;;;;;21.15;6.57;;;;;;;21.26;51.13;99650.00;4985980;28;20090;-41
2022/09/28 08:56:54;;;;;;;17.45;6.15;;;;;;;21.28;51.11;99642.63;5000126;28;20446;-41
2022/09/28 08:59:28;;;;;;;20.48;6.32;;;;;;;21.26;51.37;99658.09;5000291;28;20111;-40
2022/09/28 09:02:03;;;;;;;22.67;6.47;;;;;;;21.26;51.16;99655.38;5001560;28;20045;-35
2022/09/28 09:04:32;;;;;;;16.88;6.13;;;;;;;21.25;51.55;99659.09;5002894;28;20115;-34
2022/09/28 09:07:16;;;;;;;22.00;7.95;;;;;;;21.25;51.41;99659.94;5001887;28;20037;-34
2022/09/28 09:10:04;;;;;;;37.92;10.45;;;;;;;21.26;51.66;99663.47;5000542;28;20207;-34
2022/09/28 09:13:01;;;;;;;42.38;12.07;;;;;;;21.27;51.66;99668.69;5003049;28;20064;-34
2022/09/28 09:15:39;;;;;;;62.13;15.82;;;;;;;21.29;51.70;99668.50;5003931;28;20017;-33
2022/09/28 09:18:34;;;;;;;47.55;12.90;;;;;;;21.34;51.59;99678.78;5001013;28;20043;-34
2022/09/28 09:21:13;;;;;;;47.42;12.48;;;;;;;21.34;51.34;99674.22;5003208;28;20746;-32
2022/09/28 09:23:55;;;;;;;45.38;12.15;;;;;;;21.36;51.41;99669.53;5000976;28;20993;-34
2022/09/28 09:26:32;;;;;;;40.50;11.20;;;;;;;21.38;51.73;99669.34;5002706;28;20099;-34
2022/09/28 09:29:29;;;;;;;36.55;10.98;;;;;;;21.40;51.92;99668.19;4999527;28;20477;-34
2022/09/28 09:32:24;;;;;;;32.95;10.38;;;;;;;21.44;51.55;99676.75;4979914;28;20438;-33
2022/09/28 09:35:14;;;;;;;40.78;10.77;;;;;;;21.45;51.51;99673.91;5000274;28;20087;-32
2022/09/28 09:37:59;;;;;;;28.80;9.07;;;;;;;21.47;51.50;99665.69;5003223;28;20040;-41
2022/09/28 09:40:35;;;;;;;29.92;8.38;;;;;;;21.49;51.44;99669.03;5001177;28;20461;-38
2022/09/28 09:43:24;;;;;;;31.48;8.32;;;;;;;21.52;51.57;99663.31;5000117;28;20029;-39
2022/09/28 09:46:03;;;;;;;25.35;8.88;;;;;;;21.56;51.68;99669.22;4999754;28;20033;-40
2022/09/28 09:48:53;;;;;;;26.67;7.72;;;;;;;21.59;51.15;99664.34;5000757;28;20307;-40
2022/09/28 09:51:43;;;;;;;36.40;8.53;;;;;;;21.60;51.57;99668.72;4999932;28;20088;-39
2022/09/28 09:54:37;;;;;;;27.27;6.95;;;;;;;21.59;51.73;99664.34;5001381;28;20037;-34
2022/09/28 09:57:16;;;;;;;21.25;6.45;;;;;;;21.58;51.59;99662.66;4987770;28;20143;-34
2022/09/28 09:59:43;;;;;;;18.70;5.35;;;;;;;21.58;52.01;99672.59;5001346;28;20036;-35
2022/09/28 10:02:24;;;;;;;22.05;6.18;;;;;;;21.55;51.53;99657.59;5000293;28;20052;-34
2022/09/28 10:04:56;;;;;;;18.52;5.95;;;;;;;21.56;51.52;99659.31;5002238;28;21171;-34
2022/09/28 10:07:35;;;;;;;15.65;5.20;;;;;;;21.58;51.65;99662.66;5000915;28;20332;-34
2022/09/28 10:10:01;;;;;;;14.98;4.43;;;;;;;21.59;51.63;99674.28;5001004;28;20041;-34
2022/09/28 10:12:28;;;;;;;14.98;4.80;;;;;;;21.59;51.45;99668.88;5001385;28;21210;-34
2022/09/28 10:14:54;;;;;;;16.35;4.80;;;;;;;21.60;51.51;99662.50;4998553;28;20061;-35
2022/09/28 10:17:25;;;;;;;16.38;4.70;;;;;;;21.62;51.38;99668.53;5000764;28;20036;-40
2022/09/28 10:19:52;;;;;;;13.70;4.10;;;;;;;21.63;51.34;99672.09;5000794;28;20614;-40
2022/09/28 10:22:22;;;;;;;11.93;3.85;;;;;;;21.65;51.69;99670.06;4987484;28;20025;-40
2022/09/28 10:24:51;;;;;;;12.80;3.90;;;;;;;21.66;51.44;99661.78;4997636;28;20037;-34
2022/09/28 10:27:22;;;;;;;11.55;3.70;;;;;;;21.69;51.49;99660.63;5001672;28;20024;-34
2022/09/28 10:30:02;;;;;;;11.70;3.60;;;;;;;21.69;51.56;99657.91;5000782;28;20043;-34
2022/09/28 10:32:43;;;;;;;9.30;3.30;;;;;;;21.71;51.37;99655.91;5000161;28;20033;-34
2022/09/28 10:35:17;;;;;;;9.00;3.53;;;;;;;21.71;51.13;99664.81;5001739;28;20203;-34
2022/09/28 10:38:06;;;;;;;11.30;3.50;;;;;;;21.74;51.32;99663.63;5000634;28;20045;-34
2022/09/28 10:40:43;;;;;;;7.55;2.78;;;;;;;21.74;51.19;99669.88;4999328;28;20147;-34
2022/09/28 10:43:29;;;;;;;8.55;3.10;;;;;;;21.76;51.19;99670.56;5001400;28;20032;-35
2022/09/28 10:46:04;;;;;;;8.00;3.00;;;;;;;21.77;51.46;99663.31;4999795;28;20036;-34
2022/09/28 10:48:51;;;;;;;7.22;2.67;;;;;;;21.78;51.20;99665.00;4999896;28;20041;-34
2022/09/28 10:51:17;;;;;;;8.15;3.00;;;;;;;21.80;51.11;99664.81;5013886;28;20082;-34
2022/09/28 10:54:00;;;;;;;6.40;2.60;;;;;;;21.81;50.90;99658.44;5001677;28;20033;-35
2022/09/28 10:56:34;;;;;;;5.82;2.40;;;;;;;21.84;50.88;99666.16;4997472;28;20127;-34
2022/09/28 10:59:00;;;;;;;5.75;2.28;;;;;;;21.86;50.99;99666.84;4998271;28;20037;-34
2022/09/28 11:01:31;;;;;;;5.47;2.17;;;;;;;21.88;51.12;99657.56;4998288;28;20029;-35
2022/09/28 11:04:01;;;;;;;4.82;2.28;;;;;;;21.89;50.96;99653.00;4998129;28;20082;-34
2022/09/28 11:06:38;;;;;;;4.10;2.00;;;;;;;21.92;50.72;99656.22;4997422;28;20474;-34
2022/09/28 11:09:21;;;;;;;5.15;2.20;;;;;;;21.95;51.00;99660.41;4998792;28;20418;-34
2022/09/28 11:11:47;;;;;;;4.30;1.70;;;;;;;21.97;50.63;99660.25;4998695;28;20393;-34
2022/09/28 11:14:34;;;;;;;5.22;1.95;;;;;;;21.98;50.97;99657.38;5000841;28;20071;-35
2022/09/28 11:17:37;;;;;;;5.32;1.88;;;;;;;22.00;50.50;99665.31;4997656;28;20025;-34
2022/09/28 11:20:24;;;;;;;3.80;1.63;;;;;;;21.99;50.62;99660.91;4999786;28;20103;-34
2022/09/28 11:23:20;;;;;;;4.82;1.90;;;;;;;21.97;50.76;99662.94;5000862;28;20026;-34
2022/09/28 11:26:18;;;;;;;3.80;1.75;;;;;;;21.94;50.48;99669.50;4994573;28;20041;-35
2022/09/28 11:28:50;;;;;;;3.92;1.55;;;;;;;21.92;50.80;99668.84;4969160;28;21483;-34
2022/09/28 11:31:16;;;;;;;2.60;1.38;;;;;;;21.90;50.66;99668.19;4999999;28;20038;-39
2022/09/28 11:33:45;;;;;;;2.70;1.52;;;;;;;21.87;50.72;99665.84;4999210;28;20043;-39
2022/09/28 11:36:15;;;;;;;2.88;1.48;;;;;;;21.85;50.86;99662.47;4998983;28;20029;-39
2022/09/28 11:39:07;;;;;;;2.33;1.38;;;;;;;21.83;50.95;99662.63;4999041;28;20465;-40
2022/09/28 11:41:45;;;;;;;2.97;1.25;;;;;;;21.81;50.67;99661.94;4999744;28;20611;-39
2022/09/28 11:44:38;;;;;;;4.85;1.70;;;;;;;21.79;50.59;99672.09;4998217;28;20638;-39
2022/09/28 11:47:41;;;;;;;2.90;1.48;;;;;;;21.76;50.62;99669.72;4998287;28;20033;-39
2022/09/28 11:50:28;;;;;;;2.60;1.20;;;;;;;21.74;50.99;99660.94;4997883;28;20035;-39
2022/09/28 11:52:59;;;;;;;3.20;1.38;;;;;;;21.72;50.89;99661.13;5015746;28;20136;-39
2022/09/28 11:55:37;;;;;;;1.88;1.02;;;;;;;21.69;51.10;99658.78;4999592;28;20118;-41
2022/09/28 11:58:10;;;;;;;2.60;1.27;;;;;;;21.69;51.02;99663.31;4998928;28;20044;-38
2022/09/28 12:00:43;;;;;;;2.33;1.20;;;;;;;21.68;50.96;99665.19;4999034;28;20106;-39
2022/09/28 12:03:17;;;;;;;3.47;1.20;;;;;;;21.68;50.63;99661.66;4985803;28;20063;-40